Observation data for Olton on 05/24/2019      Previous  Date  Next       Current Mesonet Observations  Soil Data  Daily Summary Page  Observations in Plain Language
KONS 240500Z 19019G24KT 15/12 A2995 RMK A01 T01540123  RH  083%=      5-min Rain = 0.01
KONS 240505Z 20019G24KT 16/13 A2997 RMK A01 T01550128  RH  086%=      5-min Rain = 0
KONS 240510Z 17019KT 15/13 A2996 RMK A01 T01540130  RH  087%=      5-min Rain = 0.01
KONS 240515Z 17017G22KT 15/13 A2995 RMK A01 T01530132  RH  089%=      5-min Rain = 0.01
KONS 240520Z 17013KT 15/13 A2993 RMK A01 T01530134  RH  090%=      5-min Rain = 0
KONS 240525Z 16013KT 15/13 A2993 RMK A01 T01530134  RH  090%=      5-min Rain = 0.01
KONS 240530Z 16010KT 15/14 A2994 RMK A01 T01540136  RH  091%=      5-min Rain = 0
KONS 240535Z 18010KT 15/14 A2996 RMK A01 T01540137  RH  091%=      5-min Rain = 0
KONS 240540Z 24006KT 16/14 A2997 RMK A01 T01550138  RH  092%=      5-min Rain = 0
KONS 240545Z 34006KT 16/14 A2997 RMK A01 T01550137  RH  091%=      5-min Rain = 0
KONS 240550Z 29004KT 16/14 A2998 RMK A01 T01550137  RH  091%=      5-min Rain = 0.01
KONS 240555Z 35004G11KT 16/14 A2998 RMK A01 T01560137  RH  090%=      5-min Rain = 0.01
KONS 240600Z 36005KT 16/14 A2996 RMK A01 T01560135  RH  089%=      5-min Rain = 0
KONS 240605Z 36008KT 16/14 A2996 RMK A01 T01560137  RH  090%=      5-min Rain = 0
KONS 240610Z 06008KT 16/14 A2996 RMK A01 T01550136  RH  090%=      5-min Rain = 0
KONS 240615Z 09010KT 16/14 A2997 RMK A01 T01550138  RH  091%=      5-min Rain = 0.01
KONS 240620Z 08006G20KT 15/14 A2996 RMK A01 T01530136  RH  092%=      5-min Rain = 0
KONS 240625Z 08007KT 15/14 A2996 RMK A01 T01530137  RH  092%=      5-min Rain = 0
KONS 240630Z 08008KT 15/14 A2995 RMK A01 T01520137  RH  092%=      5-min Rain = 0
KONS 240635Z 10005KT 15/14 A2995 RMK A01 T01510137  RH  093%=      5-min Rain = 0
KONS 240640Z 10002G7KT 15/14 A2996 RMK A01 T01520138  RH  093%=      5-min Rain = 0
KONS 240645Z 11008KT 15/14 A2996 RMK A01 T01530139  RH  094%=      5-min Rain = 0
KONS 240650Z 11005KT 15/14 A2995 RMK A01 T01520139  RH  094%=      5-min Rain = 0
KONS 240655Z 10006KT 15/14 A2995 RMK A01 T01510138  RH  094%=      5-min Rain = 0
KONS 240700Z 14006KT 15/14 A2995 RMK A01 T01510138  RH  094%=      5-min Rain = 0
KONS 240705Z 13006KT 15/14 A2996 RMK A01 T01500138  RH  094%=      5-min Rain = 0
KONS 240710Z 10009KT 15/14 A2995 RMK A01 T01490137  RH  094%=      5-min Rain = 0
KONS 240715Z 13009KT 15/14 A2996 RMK A01 T01490137  RH  094%=      5-min Rain = 0
KONS 240720Z 10007KT 15/14 A2995 RMK A01 T01490137  RH  095%=      5-min Rain = 0
KONS 240725Z 12007KT 15/14 A2995 RMK A01 T01480137  RH  095%=      5-min Rain = 0
KONS 240730Z 13007KT 15/14 A2995 RMK A01 T01480137  RH  095%=      5-min Rain = 0
KONS 240735Z 16008KT 15/14 A2996 RMK A01 T01490138  RH  095%=      5-min Rain = 0
KONS 240740Z 16006KT 15/14 A2995 RMK A01 T01490138  RH  095%=      5-min Rain = 0
KONS 240745Z 16006KT 15/14 A2995 RMK A01 T01490138  RH  095%=      5-min Rain = 0
KONS 240750Z 15006KT 15/14 A2995 RMK A01 T01500139  RH  095%=      5-min Rain = 0
KONS 240755Z 14007KT 15/14 A2995 RMK A01 T01510140  RH  095%=      5-min Rain = 0
KONS 240800Z 15008KT 15/14 A2995 RMK A01 T01520140  RH  095%=      5-min Rain = 0
KONS 240805Z 15008KT 15/14 A2996 RMK A01 T01520140  RH  095%=      5-min Rain = 0
KONS 240810Z 15009KT 15/14 A2996 RMK A01 T01510139  RH  094%=      5-min Rain = 0
KONS 240815Z 14010KT 15/14 A2996 RMK A01 T01500138  RH  094%=      5-min Rain = 0
KONS 240820Z 15009KT 15/14 A2996 RMK A01 T01500137  RH  094%=      5-min Rain = 0.01
KONS 240825Z 16009KT 15/14 A2995 RMK A01 T01490136  RH  094%=      5-min Rain = 0
KONS 240830Z 16008KT 15/14 A2994 RMK A01 T01480136  RH  094%=      5-min Rain = 0
KONS 240835Z 16005KT 15/14 A2993 RMK A01 T01470135  RH  094%=      5-min Rain = 0
KONS 240840Z 18004KT 15/14 A2993 RMK A01 T01470135  RH  094%=      5-min Rain = 0
KONS 240845Z 21006KT 15/14 A2993 RMK A01 T01470135  RH  094%=      5-min Rain = 0
KONS 240850Z 21008KT 15/14 A2994 RMK A01 T01480136  RH  094%=      5-min Rain = 0
KONS 240855Z 21006G11KT 15/14 A2994 RMK A01 T01480136  RH  095%=      5-min Rain = 0
KONS 240900Z 21007KT 15/14 A2994 RMK A01 T01470136  RH  094%=      5-min Rain = 0
KONS 240905Z 22005KT 15/14 A2994 RMK A01 T01470135  RH  095%=      5-min Rain = 0
KONS 240910Z 19007KT 15/14 A2995 RMK A01 T01470136  RH  095%=      5-min Rain = 0
KONS 240915Z 19005KT 15/14 A2994 RMK A01 T01470135  RH  095%=      5-min Rain = 0
KONS 240920Z 15005KT 15/14 A2994 RMK A01 T01470135  RH  095%=      5-min Rain = 0
KONS 240925Z 15006KT 15/14 A2993 RMK A01 T01470135  RH  095%=      5-min Rain = 0
KONS 240930Z 17004KT 15/14 A2994 RMK A01 T01460135  RH  095%=      5-min Rain = 0
KONS 240935Z 18005KT 15/14 A2995 RMK A01 T01460135  RH  095%=      5-min Rain = 0
KONS 240940Z 17005KT 15/14 A2995 RMK A01 T01460135  RH  095%=      5-min Rain = 0
KONS 240945Z 18005KT 15/14 A2996 RMK A01 T01460135  RH  095%=      5-min Rain = 0
KONS 240950Z 13005KT 15/14 A2997 RMK A01 T01470136  RH  095%=      5-min Rain = 0
KONS 240955Z 15003KT 15/14 A2996 RMK A01 T01470135  RH  095%=      5-min Rain = 0
KONS 241000Z 18003KT 15/13 A2996 RMK A01 T01460134  RH  095%=      5-min Rain = 0
KONS 241005Z 19006KT 15/13 A2996 RMK A01 T01450133  RH  094%=      5-min Rain = 0
KONS 241010Z 18005KT 15/13 A2996 RMK A01 T01450133  RH  094%=      5-min Rain = 0
KONS 241015Z 18003KT 14/13 A2996 RMK A01 T01440131  RH  094%=      5-min Rain = 0
KONS 241020Z 17003KT 14/13 A2996 RMK A01 T01430130  RH  094%=      5-min Rain = 0
KONS 241025Z 18003KT 14/13 A2996 RMK A01 T01420129  RH  094%=      5-min Rain = 0
KONS 241030Z 20004KT 14/13 A2996 RMK A01 T01410128  RH  094%=      5-min Rain = 0
KONS 241035Z 20004KT 14/13 A2996 RMK A01 T01400128  RH  094%=      5-min Rain = 0
KONS 241040Z 20005KT 14/13 A2996 RMK A01 T01390127  RH  094%=      5-min Rain = 0
KONS 241045Z 17004KT 14/13 A2996 RMK A01 T01400128  RH  094%=      5-min Rain = 0
KONS 241050Z 18003KT 14/13 A2997 RMK A01 T01400128  RH  094%=      5-min Rain = 0
KONS 241055Z 23002KT 14/13 A2997 RMK A01 T01420130  RH  094%=      5-min Rain = 0
KONS 241100Z 31004KT 14/13 A2997 RMK A01 T01430131  RH  094%=      5-min Rain = 0
KONS 241105Z 30005KT 14/13 A2997 RMK A01 T01430131  RH  094%=      5-min Rain = 0
KONS 241110Z 28003KT 14/13 A2998 RMK A01 T01440132  RH  095%=      5-min Rain = 0
KONS 241115Z 25003KT 15/13 A2998 RMK A01 T01450134  RH  095%=      5-min Rain = 0
KONS 241120Z 23003KT 15/13 A2998 RMK A01 T01460134  RH  095%=      5-min Rain = 0
KONS 241125Z 23002KT 15/13 A2997 RMK A01 T01460134  RH  094%=      5-min Rain = 0
KONS 241130Z 23001KT 15/14 A2998 RMK A01 T01470135  RH  094%=      5-min Rain = 0
KONS 241135Z 25002KT 15/14 A2998 RMK A01 T01480136  RH  094%=      5-min Rain = 0
KONS 241140Z 27002KT 15/14 A2998 RMK A01 T01490137  RH  094%=      5-min Rain = 0
KONS 241145Z 29001KT 15/14 A2998 RMK A01 T01500138  RH  094%=      5-min Rain = 0
KONS 241150Z 28000KT 15/14 A2998 RMK A01 T01500137  RH  094%=      5-min Rain = 0
KONS 241155Z 28001KT 15/14 A2998 RMK A01 T01490137  RH  094%=      5-min Rain = 0
KONS 241200Z 27001KT 15/14 A2998 RMK A01 T01490136  RH  094%=      5-min Rain = 0
KONS 241205Z 00000KT 15/14 A2998 RMK A01 T01480136  RH  094%=      5-min Rain = 0
KONS 241210Z 24001KT 15/14 A2998 RMK A01 T01480135  RH  094%=      5-min Rain = 0
KONS 241215Z 24002KT 15/14 A2999 RMK A01 T01480135  RH  094%=      5-min Rain = 0
KONS 241220Z 24001KT 15/14 A2999 RMK A01 T01490137  RH  094%=      5-min Rain = 0
KONS 241225Z 29001KT 15/14 A2999 RMK A01 T01500137  RH  094%=      5-min Rain = 0
KONS 241230Z 31002KT 15/14 A2999 RMK A01 T01500138  RH  094%=      5-min Rain = 0
KONS 241235Z 31002KT 15/14 A2999 RMK A01 T01510139  RH  094%=      5-min Rain = 0
KONS 241240Z 31001KT 15/14 A2999 RMK A01 T01520140  RH  094%=      5-min Rain = 0
KONS 241245Z 33002KT 15/14 A2999 RMK A01 T01520139  RH  094%=      5-min Rain = 0
KONS 241250Z 34002KT 15/14 A2999 RMK A01 T01530140  RH  094%=      5-min Rain = 0
KONS 241255Z 35003KT 15/14 A30 RMK A01 T01530140  RH  094%=      5-min Rain = 0
KONS 241300Z 36004KT 15/14 A30 RMK A01 T01530140  RH  094%=      5-min Rain = 0
KONS 241305Z 35005KT 15/14 A3001 RMK A01 T01540141  RH  094%=      5-min Rain = 0
KONS 241310Z 34004KT 15/14 A3001 RMK A01 T01540141  RH  094%=      5-min Rain = 0
KONS 241315Z 32003KT 15/14 A3001 RMK A01 T01540141  RH  094%=      5-min Rain = 0
KONS 241320Z 33003KT 15/14 A30 RMK A01 T01540141  RH  094%=      5-min Rain = 0
KONS 241325Z 33005KT 16/14 A30 RMK A01 T01550142  RH  094%=      5-min Rain = 0
KONS 241330Z 33004KT 16/14 A30 RMK A01 T01560143  RH  094%=      5-min Rain = 0
KONS 241335Z 34002KT 16/14 A30 RMK A01 T01560143  RH  094%=      5-min Rain = 0
KONS 241340Z 34001KT 16/14 A30 RMK A01 T01570144  RH  094%=      5-min Rain = 0
KONS 241345Z 35002KT 16/15 A30 RMK A01 T01600146  RH  094%=      5-min Rain = 0
KONS 241350Z 00003KT 16/15 A30 RMK A01 T01620148  RH  093%=      5-min Rain = 0
KONS 241355Z 01002KT 17/15 A3001 RMK A01 T01650149  RH  092%=      5-min Rain = 0
KONS 241400Z 14000KT 17/15 A30 RMK A01 T01700153  RH  092%=      5-min Rain = 0
KONS 241405Z 12000KT 18/16 A30 RMK A01 T01750157  RH  091%=      5-min Rain = 0
KONS 241410Z 32001KT 18/16 A30 RMK A01 T01800159  RH  089%=      5-min Rain = 0
KONS 241415Z 30002KT 18/16 A30 RMK A01 T01810156  RH  087%=      5-min Rain = 0
KONS 241420Z 10001KT 18/16 A3001 RMK A01 T01840159  RH  087%=      5-min Rain = 0
KONS 241425Z 08001KT 19/16 A3001 RMK A01 T01870157  RH  084%=      5-min Rain = 0
KONS 241430Z 08001KT 19/16 A30 RMK A01 T01910158  RH  083%=      5-min Rain = 0
KONS 241435Z 08002KT 19/15 A30 RMK A01 T01910154  RH  081%=      5-min Rain = 0
KONS 241440Z 04001KT 19/16 A30 RMK A01 T01920155  RH  081%=      5-min Rain = 0
KONS 241445Z 09001KT 19/16 A30 RMK A01 T01920155  RH  081%=      5-min Rain = 0
KONS 241450Z 11003KT 19/16 A30 RMK A01 T01940156  RH  081%=      5-min Rain = 0
KONS 241455Z 09005KT 19/16 A30 RMK A01 T01930155  RH  080%=      5-min Rain = 0
KONS 241500Z 09004KT 19/16 A30 RMK A01 T01940155  RH  080%=      5-min Rain = 0
KONS 241505Z 10005KT 19/16 A30 RMK A01 T01940155  RH  080%=      5-min Rain = 0
KONS 241510Z 10003KT 19/16 A30 RMK A01 T01940157  RH  081%=      5-min Rain = 0
KONS 241515Z 12005KT 20/16 A30 RMK A01 T01990162  RH  081%=      5-min Rain = 0
KONS 241520Z 11005KT 20/16 A30 RMK A01 T02040163  RH  080%=      5-min Rain = 0
KONS 241525Z 12005KT 20/16 A30 RMK A01 T02030163  RH  080%=      5-min Rain = 0
KONS 241530Z 14007KT 20/17 A30 RMK A01 T02030165  RH  081%=      5-min Rain = 0
KONS 241535Z 13006KT 20/17 A30 RMK A01 T02040168  RH  082%=      5-min Rain = 0
KONS 241540Z 14007KT 21/17 A3001 RMK A01 T02070170  RH  081%=      5-min Rain = 0
KONS 241545Z 13006KT 21/17 A3001 RMK A01 T02050169  RH  082%=      5-min Rain = 0
KONS 241550Z 13005KT 20/17 A3001 RMK A01 T02040169  RH  082%=      5-min Rain = 0
KONS 241555Z 12006KT 21/17 A30 RMK A01 T02060171  RH  082%=      5-min Rain = 0
KONS 241600Z 13006KT 21/18 A30 RMK A01 T02080175  RH  084%=      5-min Rain = 0
KONS 241605Z 14007KT 21/18 A30 RMK A01 T02110176  RH  083%=      5-min Rain = 0
KONS 241610Z 15008KT 21/18 A30 RMK A01 T02110177  RH  083%=      5-min Rain = 0
KONS 241615Z 15007KT 21/18 A30 RMK A01 T02110176  RH  082%=      5-min Rain = 0
KONS 241620Z 15006KT 21/18 A30 RMK A01 T02100178  RH  084%=      5-min Rain = 0
KONS 241625Z 15007KT 21/18 A30 RMK A01 T02090179  RH  085%=      5-min Rain = 0
KONS 241630Z 17006KT 21/18 A30 RMK A01 T02090179  RH  085%=      5-min Rain = 0
KONS 241635Z 16006KT 21/18 A30 RMK A01 T02110182  RH  086%=      5-min Rain = 0
KONS 241640Z 16006KT 21/18 A30 RMK A01 T02130182  RH  085%=      5-min Rain = 0
KONS 241645Z 15007KT 21/18 A30 RMK A01 T02140183  RH  085%=      5-min Rain = 0
KONS 241650Z 15007KT 21/18 A30 RMK A01 T02140183  RH  085%=      5-min Rain = 0
KONS 241655Z 16007KT 21/18 A3001 RMK A01 T02130182  RH  085%=      5-min Rain = 0
KONS 241700Z 16009KT 21/18 A3001 RMK A01 T02130184  RH  085%=      5-min Rain = 0
KONS 241705Z 17007KT 22/19 A3001 RMK A01 T02160185  RH  085%=      5-min Rain = 0
KONS 241710Z 18007KT 22/18 A3001 RMK A01 T02160183  RH  084%=      5-min Rain = 0
KONS 241715Z 18009KT 22/18 A3001 RMK A01 T02170184  RH  084%=      5-min Rain = 0
KONS 241720Z 17009KT 22/18 A3001 RMK A01 T02160184  RH  084%=      5-min Rain = 0
KONS 241725Z 17009KT 21/18 A3001 RMK A01 T02140183  RH  085%=      5-min Rain = 0
KONS 241730Z 16008KT 22/19 A3001 RMK A01 T02180187  RH  085%=      5-min Rain = 0
KONS 241735Z 16007KT 22/19 A30 RMK A01 T02190187  RH  084%=      5-min Rain = 0
KONS 241740Z 17006KT 22/19 A30 RMK A01 T02200187  RH  084%=      5-min Rain = 0
KONS 241745Z 19006KT 23/19 A30 RMK A01 T02250187  RH  081%=      5-min Rain = 0
KONS 241750Z 20003G8KT 23/19 A2999 RMK A01 T02250188  RH  081%=      5-min Rain = 0
KONS 241755Z 19005KT 23/19 A2999 RMK A01 T02290189  RH  080%=      5-min Rain = 0
KONS 241800Z 20004KT 23/19 A2998 RMK A01 T02310189  RH  079%=      5-min Rain = 0
KONS 241805Z 20004G9KT 23/19 A2998 RMK A01 T02340192  RH  079%=      5-min Rain = 0
KONS 241810Z 20004G9KT 24/19 A2998 RMK A01 T02370191  RH  078%=      5-min Rain = 0
KONS 241815Z 19005KT 23/19 A2998 RMK A01 T02340188  RH  077%=      5-min Rain = 0
KONS 241820Z 24004KT 23/19 A2997 RMK A01 T02340186  RH  077%=      5-min Rain = 0
KONS 241825Z 20004KT 24/19 A2997 RMK A01 T02370191  RH  077%=      5-min Rain = 0
KONS 241830Z 18008KT 24/19 A2996 RMK A01 T02410187  RH  074%=      5-min Rain = 0
KONS 241835Z 17008KT 25/19 A2997 RMK A01 T02450189  RH  073%=      5-min Rain = 0
KONS 241840Z 18007G12KT 25/19 A2997 RMK A01 T02450186  RH  072%=      5-min Rain = 0
KONS 241845Z 19007KT 25/19 A2997 RMK A01 T02460186  RH  071%=      5-min Rain = 0
KONS 241850Z 20006G11KT 25/18 A2996 RMK A01 T02470184  RH  070%=      5-min Rain = 0
KONS 241855Z 19005KT 25/18 A2995 RMK A01 T02470184  RH  070%=      5-min Rain = 0
KONS 241900Z 21006KT 25/19 A2995 RMK A01 T02500185  RH  069%=      5-min Rain = 0
KONS 241905Z 20006KT 25/18 A2996 RMK A01 T02520183  RH  067%=      5-min Rain = 0
KONS 241910Z 21006KT 25/18 A2996 RMK A01 T02450177  RH  067%=      5-min Rain = 0
KONS 241915Z 18005KT 24/18 A2995 RMK A01 T02420179  RH  069%=      5-min Rain = 0
KONS 241920Z 17005KT 24/18 A2995 RMK A01 T02410177  RH  069%=      5-min Rain = 0
KONS 241925Z 15006KT 24/18 A2996 RMK A01 T02400178  RH  070%=      5-min Rain = 0
KONS 241930Z 15005KT 24/18 A2996 RMK A01 T02410181  RH  071%=      5-min Rain = 0
KONS 241935Z 15006KT 24/18 A2995 RMK A01 T02410184  RH  072%=      5-min Rain = 0
KONS 241940Z 19005KT 24/18 A2994 RMK A01 T02400179  RH  070%=      5-min Rain = 0
KONS 241945Z 14005KT 24/19 A2994 RMK A01 T02410186  RH  074%=      5-min Rain = 0
KONS 241950Z 14007KT 24/19 A2994 RMK A01 T02400190  RH  075%=      5-min Rain = 0
KONS 241955Z 14008KT 24/19 A2994 RMK A01 T02400189  RH  075%=      5-min Rain = 0
KONS 242000Z 13007KT 24/19 A2994 RMK A01 T02400191  RH  076%=      5-min Rain = 0
KONS 242005Z 13008KT 24/19 A2994 RMK A01 T02430191  RH  075%=      5-min Rain = 0
KONS 242010Z 14008KT 25/19 A2993 RMK A01 T02450190  RH  073%=      5-min Rain = 0
KONS 242015Z 14007KT 25/19 A2993 RMK A01 T02470190  RH  073%=      5-min Rain = 0
KONS 242020Z 14007KT 25/19 A2993 RMK A01 T02530188  RH  069%=      5-min Rain = 0
KONS 242025Z 14008KT 26/18 A2993 RMK A01 T02560183  RH  066%=      5-min Rain = 0
KONS 242030Z 12010G15KT 26/19 A2993 RMK A01 T02600191  RH  067%=      5-min Rain = 0
KONS 242035Z 10014KT 26/20 A2992 RMK A01 T02590201  RH  073%=      5-min Rain = 0
KONS 242040Z 11012KT 25/19 A2992 RMK A01 T02520193  RH  072%=      5-min Rain = 0
KONS 242045Z 11011KT 25/19 A2991 RMK A01 T02460190  RH  073%=      5-min Rain = 0
KONS 242050Z 10012KT 24/19 A2991 RMK A01 T02430188  RH  073%=      5-min Rain = 0
KONS 242055Z 11011KT 24/19 A2991 RMK A01 T02440186  RH  072%=      5-min Rain = 0
KONS 242100Z 12010KT 25/19 A2991 RMK A01 T02490188  RH  071%=      5-min Rain = 0
KONS 242105Z 12010KT 25/19 A299 RMK A01 T02510187  RH  070%=      5-min Rain = 0
KONS 242110Z 11009KT 25/18 A299 RMK A01 T02510184  RH  068%=      5-min Rain = 0
KONS 242115Z 12007KT 25/18 A299 RMK A01 T02520178  RH  065%=      5-min Rain = 0
KONS 242120Z 11009KT 26/18 A299 RMK A01 T02550175  RH  063%=      5-min Rain = 0
KONS 242125Z 11010KT 26/17 A2991 RMK A01 T02570173  RH  062%=      5-min Rain = 0
KONS 242130Z 12009KT 26/17 A2991 RMK A01 T02580169  RH  059%=      5-min Rain = 0
KONS 242135Z 11011G20KT 26/18 A299 RMK A01 T02610176  RH  061%=      5-min Rain = 0
KONS 242140Z 11015G21KT 25/18 A2989 RMK A01 T02510175  RH  064%=      5-min Rain = 0
KONS 242145Z 10011KT 25/17 A2989 RMK A01 T02510172  RH  063%=      5-min Rain = 0
KONS 242150Z 11012KT 25/17 A2988 RMK A01 T02510172  RH  063%=      5-min Rain = 0
KONS 242155Z 11009KT 25/17 A2988 RMK A01 T02450170  RH  064%=      5-min Rain = 0
KONS 242200Z 12007G12KT 25/17 A2988 RMK A01 T02470171  RH  064%=      5-min Rain = 0
KONS 242205Z 10006G11KT 25/17 A2988 RMK A01 T02520167  RH  061%=      5-min Rain = 0
KONS 242210Z 11011KT 25/17 A2988 RMK A01 T02540172  RH  062%=      5-min Rain = 0
KONS 242215Z 10011KT 25/17 A2988 RMK A01 T02510171  RH  063%=      5-min Rain = 0
KONS 242220Z 10007G13KT 25/17 A2988 RMK A01 T02500174  RH  064%=      5-min Rain = 0
KONS 242225Z 11009G17KT 25/16 A2988 RMK A01 T02510163  RH  059%=      5-min Rain = 0
KONS 242230Z 12016G21KT 25/18 A2988 RMK A01 T02480176  RH  066%=      5-min Rain = 0
KONS 242235Z 11015KT 24/18 A2989 RMK A01 T02420178  RH  069%=      5-min Rain = 0
KONS 242240Z 12014KT 24/18 A2989 RMK A01 T02390176  RH  070%=      5-min Rain = 0
KONS 242245Z 11016KT 24/17 A2989 RMK A01 T02370173  RH  069%=      5-min Rain = 0
KONS 242250Z 11013KT 23/17 A2988 RMK A01 T02340172  RH  070%=      5-min Rain = 0
KONS 242255Z 10015KT 24/17 A2988 RMK A01 T02360173  RH  069%=      5-min Rain = 0
KONS 242300Z 11014KT 23/17 A2987 RMK A01 T02340174  RH  071%=      5-min Rain = 0
KONS 242305Z 10013KT 23/17 A2987 RMK A01 T02300172  RH  071%=      5-min Rain = 0
KONS 242310Z 11013KT 23/17 A2987 RMK A01 T02290166  RH  069%=      5-min Rain = 0
KONS 242315Z 11013KT 23/17 A2987 RMK A01 T02310167  RH  069%=      5-min Rain = 0
KONS 242320Z 11012KT 23/16 A2987 RMK A01 T02300163  RH  067%=      5-min Rain = 0
KONS 242325Z 11013G18KT 23/16 A2987 RMK A01 T02310162  RH  067%=      5-min Rain = 0
KONS 242330Z 10015KT 23/16 A2987 RMK A01 T02320161  RH  066%=      5-min Rain = 0
KONS 242335Z 11013KT 23/16 A2987 RMK A01 T02270157  RH  066%=      5-min Rain = 0
KONS 242340Z 11012KT 23/16 A2986 RMK A01 T02260156  RH  066%=      5-min Rain = 0
KONS 242345Z 11011KT 23/16 A2986 RMK A01 T02280156  RH  065%=      5-min Rain = 0
KONS 242350Z 11010KT 23/16 A2986 RMK A01 T02320158  RH  064%=      5-min Rain = 0
KONS 242355Z 12012G17KT 24/16 A2986 RMK A01 T02360159  RH  064%=      5-min Rain = 0
KONS 250000Z 14010G15KT 23/16 A2986 RMK A01 T02330158  RH  064%=      5-min Rain = 0
KONS 250005Z 14010KT 23/16 A2986 RMK A01 T02300158  RH  065%=      5-min Rain = 0
KONS 250010Z 13012G18KT 23/16 A2986 RMK A01 T02280161  RH  067%=      5-min Rain = 0
KONS 250015Z 13016KT 22/16 A2986 RMK A01 T02160155  RH  070%=      5-min Rain = 0
KONS 250020Z 12015G20KT 21/15 A2987 RMK A01 T02060151  RH  072%=      5-min Rain = 0
KONS 250025Z 12012KT 20/15 A2986 RMK A01 T02020152  RH  075%=      5-min Rain = 0
KONS 250030Z 11015G22KT 20/15 A2985 RMK A01 T02030151  RH  074%=      5-min Rain = 0
KONS 250035Z 12016G21KT 20/15 A2986 RMK A01 T02000152  RH  076%=      5-min Rain = 0
KONS 250040Z 12016G23KT 20/15 A2987 RMK A01 T01990154  RH  077%=      5-min Rain = 0
KONS 250045Z 12016G21KT 20/16 A2987 RMK A01 T01950155  RH  080%=      5-min Rain = 0
KONS 250050Z 12015G22KT 19/16 A2987 RMK A01 T01940156  RH  080%=      5-min Rain = 0
KONS 250055Z 13020G29KT 19/15 A2988 RMK A01 T01910154  RH  081%=      5-min Rain = 0
KONS 250100Z 13022G28KT 19/15 A2988 RMK A01 T01870153  RH  082%=      5-min Rain = 0
KONS 250105Z 13019G27KT 19/15 A2989 RMK A01 T01860153  RH  083%=      5-min Rain = 0
KONS 250110Z 13021G30KT 19/15 A2989 RMK A01 T01860152  RH  082%=      5-min Rain = 0
KONS 250115Z 14019G26KT 18/15 A2989 RMK A01 T01840151  RH  083%=      5-min Rain = 0
KONS 250120Z 14018G23KT 18/15 A2988 RMK A01 T01830149  RH  082%=      5-min Rain = 0
KONS 250125Z 15016G22KT 18/15 A2989 RMK A01 T01840148  RH  082%=      5-min Rain = 0
KONS 250130Z 15017KT 19/15 A2989 RMK A01 T01850148  RH  081%=      5-min Rain = 0
KONS 250135Z 14014KT 19/15 A299 RMK A01 T01850149  RH  081%=      5-min Rain = 0
KONS 250140Z 14014G19KT 19/15 A299 RMK A01 T01870147  RH  079%=      5-min Rain = 0
KONS 250145Z 15017G22KT 19/15 A299 RMK A01 T01890145  RH  077%=      5-min Rain = 0
KONS 250150Z 15018G24KT 19/15 A299 RMK A01 T01880147  RH  079%=      5-min Rain = 0
KONS 250155Z 16015G22KT 19/15 A299 RMK A01 T01870152  RH  082%=      5-min Rain = 0
KONS 250200Z 15016G29KT 19/16 A2989 RMK A01 T01870156  RH  084%=      5-min Rain = 0
KONS 250205Z 16022G31KT 19/16 A2987 RMK A01 T01930161  RH  084%=      5-min Rain = 0
KONS 250210Z 16025G33KT 20/17 A2988 RMK A01 T01990167  RH  084%=      5-min Rain = 0
KONS 250215Z 17026G33KT 20/17 A2988 RMK A01 T02010170  RH  084%=      5-min Rain = 0
KONS 250220Z 17027G38KT 20/17 A2987 RMK A01 T02010171  RH  085%=      5-min Rain = 0
KONS 250225Z 17028G37KT 20/16 A2988 RMK A01 T01960158  RH  081%=      5-min Rain = 0.01
KONS 250230Z 18027G36KT 19/15 A2989 RMK A01 T01890146  RH  078%=      5-min Rain = 0.01
KONS 250235Z 17027G32KT 18/12 A2989 RMK A01 T01750121  RH  072%=      5-min Rain = 0.01
KONS 250240Z 18025G32KT 16/11 A2991 RMK A01 T01640114  RH  073%=      5-min Rain = 0.01
KONS 250245Z 17023G30KT 16/11 A2992 RMK A01 T01590110  RH  074%=      5-min Rain = 0.01
KONS 250250Z 17026G31KT 16/11 A2993 RMK A01 T01560106  RH  073%=      5-min Rain = 0.03
KONS 250255Z 15022G28KT 15/11 A2992 RMK A01 T01500108  RH  078%=      5-min Rain = 0.04
KONS 250300Z 17021G30KT 15/12 A2994 RMK A01 T01520117  RH  081%=      5-min Rain = 0.01
KONS 250305Z 17018G25KT 15/13 A2994 RMK A01 T01530125  RH  085%=      5-min Rain = 0.01
KONS 250310Z 17020G27KT 15/13 A2994 RMK A01 T01510129  RH  088%=      5-min Rain = 0
KONS 250315Z 16021G26KT 16/13 A2994 RMK A01 T01570133  RH  088%=      5-min Rain = 0
KONS 250320Z 14017G25KT 16/13 A2994 RMK A01 T01610129  RH  083%=      5-min Rain = 0
KONS 250325Z 14016G21KT 16/13 A2994 RMK A01 T01590129  RH  084%=      5-min Rain = 0
KONS 250330Z 17015G23KT 17/13 A2995 RMK A01 T01660128  RH  080%=      5-min Rain = 0
KONS 250335Z 17014G20KT 18/13 A2995 RMK A01 T01770126  RH  073%=      5-min Rain = 0
KONS 250340Z 17014KT 18/13 A2995 RMK A01 T01770129  RH  075%=      5-min Rain = 0
KONS 250345Z 17013G20KT 17/13 A2996 RMK A01 T01740132  RH  078%=      5-min Rain = 0
KONS 250350Z 17013KT 17/13 A2996 RMK A01 T01700133  RH  080%=      5-min Rain = 0
KONS 250355Z 16012G17KT 17/13 A2996 RMK A01 T01700133  RH  080%=      5-min Rain = 0
KONS 250400Z 15010KT 17/13 A2997 RMK A01 T01680133  RH  082%=      5-min Rain = 0
KONS 250405Z 16009KT 17/13 A2997 RMK A01 T01660133  RH  083%=      5-min Rain = 0
KONS 250410Z 16009KT 16/13 A2997 RMK A01 T01640132  RH  083%=      5-min Rain = 0
KONS 250415Z 15009KT 16/13 A2997 RMK A01 T01630133  RH  084%=      5-min Rain = 0
KONS 250420Z 15010KT 16/13 A2997 RMK A01 T01640133  RH  084%=      5-min Rain = 0
KONS 250425Z 15010KT 17/13 A2998 RMK A01 T01660134  RH  083%=      5-min Rain = 0
KONS 250430Z 14011KT 17/13 A2998 RMK A01 T01680134  RH  082%=      5-min Rain = 0
KONS 250435Z 14010KT 17/14 A2998 RMK A01 T01700135  RH  081%=      5-min Rain = 0
KONS 250440Z 15010KT 17/14 A2998 RMK A01 T01700139  RH  083%=      5-min Rain = 0
KONS 250445Z 15012KT 17/15 A2998 RMK A01 T01740145  RH  085%=      5-min Rain = 0
KONS 250450Z 15012KT 18/15 A2998 RMK A01 T01790150  RH  085%=      5-min Rain = 0
KONS 250455Z 14012KT 18/15 A2998 RMK A01 T01800153  RH  086%=      5-min Rain = 0

Page generated in 0.0102 seconds.